Time;durP1;ratioP1;P1;durP2;ratioP2;P2;SDS_P1;SDS_P2;PMS_P1;PMS_P2;Temp;Humidity;BMP_temperature;BMP_pressure;BME280_temperature;BME280_humidity;BME280_pressure;Samples;Min_cycle;Max_cycle;Signal;HPM_P1;HPM_P2
2022/07/05 00:00:58;;;;;;;1.83;1.60;;;;;204.60;224519.00;;;;4943021;28;20715;-63
2022/07/05 00:03:45;;;;;;;1.90;1.70;;;;;204.60;224519.00;;;;4947968;28;20240;-61
2022/07/05 00:06:32;;;;;;;1.90;1.70;;;;;204.60;224519.00;;;;4944457;28;20732;-62
2022/07/05 00:09:18;;;;;;;2.20;1.70;;;;;204.60;224519.00;;;;4946454;28;20736;-63
2022/07/05 00:12:04;;;;;;;2.00;1.60;;;;;204.60;224519.00;;;;4939517;28;20248;-63
2022/07/05 00:14:51;;;;;;;4.60;1.93;;;;;204.60;224519.00;;;;4946777;28;20242;-63
2022/07/05 00:17:38;;;;;;;1.87;1.70;;;;;204.60;224519.00;;;;4946008;28;20249;-62
2022/07/05 00:20:26;;;;;;;1.97;1.80;;;;;204.60;224519.00;;;;4932914;28;20732;-63
2022/07/05 00:23:12;;;;;;;2.20;1.70;;;;;204.60;224519.00;;;;4932808;29;20366;-61
2022/07/05 00:25:58;;;;;;;2.00;1.80;;;;;204.60;224519.00;;;;4931660;29;20264;-63
2022/07/05 00:28:45;;;;;;;2.40;1.90;;;;;204.60;224519.00;;;;4935354;28;20260;-63
2022/07/05 00:31:31;;;;;;;2.93;1.50;;;;;204.60;224519.00;;;;4935082;28;20234;-62
2022/07/05 00:34:17;;;;;;;2.63;1.90;;;;;204.60;224519.00;;;;4933008;28;20258;-64
2022/07/05 00:37:05;;;;;;;2.90;1.60;;;;;204.60;224519.00;;;;4933467;28;20276;-61
2022/07/05 00:39:52;;;;;;;2.13;1.60;;;;;204.60;224519.00;;;;4929198;29;20239;-63
2022/07/05 00:42:38;;;;;;;1.90;1.80;;;;;204.60;224519.00;;;;4928707;28;20259;-63
2022/07/05 00:45:24;;;;;;;1.77;1.60;;;;;204.60;224519.00;;;;4927822;29;20774;-63
2022/07/05 00:48:11;;;;;;;1.70;1.60;;;;;204.60;224519.00;;;;4930144;28;20388;-63
2022/07/05 00:50:57;;;;;;;2.30;1.63;;;;;204.60;224519.00;;;;4930540;28;20227;-62
2022/07/05 00:53:45;;;;;;;3.57;1.43;;;;;204.60;224519.00;;;;4931135;29;20229;-63
2022/07/05 00:56:32;;;;;;;2.43;1.50;;;;;204.60;224519.00;;;;4942580;28;20290;-63
2022/07/05 00:59:18;;;;;;;1.70;1.60;;;;;204.60;224519.00;;;;4943380;28;20233;-63
2022/07/05 01:02:04;;;;;;;4.33;2.10;;;;;204.60;224519.00;;;;4940438;28;20229;-61
2022/07/05 01:04:52;;;;;;;2.20;2.00;;;;;204.60;224519.00;;;;4944936;28;20306;-63
2022/07/05 01:07:38;;;;;;;4.00;1.80;;;;;204.60;224519.00;;;;4943805;28;20235;-61
2022/07/05 01:10:25;;;;;;;2.20;1.50;;;;;204.60;224519.00;;;;4941219;28;20289;-63
2022/07/05 01:13:14;;;;;;;4.90;1.87;;;;;204.60;224519.00;;;;4939015;28;20251;-63
2022/07/05 01:16:00;;;;;;;3.20;1.90;;;;;204.60;224519.00;;;;4942661;28;20304;-63
2022/07/05 01:18:47;;;;;;;1.80;1.70;;;;;204.60;224519.00;;;;4945241;28;20238;-64
2022/07/05 01:21:34;;;;;;;2.77;1.73;;;;;204.60;224519.00;;;;4941234;28;20288;-62
2022/07/05 01:24:22;;;;;;;1.93;1.80;;;;;204.60;224519.00;;;;4941677;28;20551;-64
2022/07/05 01:27:08;;;;;;;3.27;1.93;;;;;204.60;224519.00;;;;4944414;28;20242;-63
2022/07/05 01:29:55;;;;;;;1.80;1.70;;;;;204.60;224519.00;;;;4945204;28;20770;-63
2022/07/05 01:32:41;;;;;;;2.87;1.77;;;;;204.60;224519.00;;;;4938992;28;20229;-63
2022/07/05 01:35:27;;;;;;;2.60;1.47;;;;;204.60;224519.00;;;;4930796;28;20235;-63
2022/07/05 01:38:14;;;;;;;1.67;1.57;;;;;204.60;224519.00;;;;4928809;29;20242;-63
2022/07/05 01:41:01;;;;;;;1.90;1.80;;;;;204.60;224519.00;;;;4930968;29;21038;-63
2022/07/05 01:43:48;;;;;;;2.00;1.90;;;;;204.60;224519.00;;;;4933981;28;20240;-63
2022/07/05 01:46:37;;;;;;;1.80;1.70;;;;;15.40;101516.00;;;;4933366;28;20340;-63
2022/07/05 01:49:26;;;;;;;3.07;1.70;;;;;15.50;101553.00;;;;4935026;28;20232;-63
2022/07/05 01:52:13;;;;;;;1.70;1.60;;;;;15.50;101553.00;;;;4945336;28;20233;-64
2022/07/05 01:55:00;;;;;;;3.13;1.90;;;;;15.50;101544.00;;;;4948054;28;20708;-63
2022/07/05 01:57:48;;;;;;;3.50;2.40;;;;;15.50;101535.00;;;;4946528;28;20621;-62
2022/07/05 02:00:43;;;;;;;2.33;1.80;;;;;15.50;101535.00;;;;4949564;28;20287;-63
2022/07/05 02:03:30;;;;;;;1.60;1.50;;;;;15.40;101537.00;;;;4945887;28;20246;-64
2022/07/05 02:06:37;;;;;;;3.13;2.10;;;;;15.40;101543.00;;;;4945102;28;20233;-62
2022/07/05 02:09:23;;;;;;;4.03;1.73;;;;;15.30;101528.00;;;;4947567;28;20677;-62
2022/07/05 02:12:10;;;;;;;3.00;1.90;;;;;15.20;101539.00;;;;4947526;28;20242;-62
2022/07/05 02:14:57;;;;;;;2.13;1.93;;;;;15.20;101534.00;;;;4946930;28;20239;-63
2022/07/05 02:17:43;;;;;;;4.37;2.20;;;;;15.10;101537.00;;;;4947649;28;20237;-63
2022/07/05 02:20:31;;;;;;;2.00;1.77;;;;;15.10;101536.00;;;;4949346;28;20762;-63
2022/07/05 02:23:17;;;;;;;1.83;1.50;;;;;15.00;101537.00;;;;4944224;28;20236;-62
2022/07/05 02:26:03;;;;;;;2.03;1.83;;;;;14.90;101528.00;;;;4949323;28;20232;-62
2022/07/05 02:28:50;;;;;;;3.17;2.33;;;;;14.90;101535.00;;;;4946677;28;20879;-63
2022/07/05 02:31:38;;;;;;;1.80;1.70;;;;;14.80;101526.00;;;;4945173;28;20276;-65
2022/07/05 02:34:25;;;;;;;2.03;1.80;;;;;14.80;101533.00;;;;4943724;28;20320;-63
2022/07/05 02:37:12;;;;;;;2.10;1.90;;;;;14.60;101536.00;;;;4949795;28;20973;-63
2022/07/05 02:39:58;;;;;;;3.27;2.00;;;;;14.70;101541.00;;;;4947826;28;20235;-63
2022/07/05 02:42:44;;;;;;;2.47;1.80;;;;;14.80;101552.00;;;;4942704;28;20287;-64
2022/07/05 02:45:31;;;;;;;2.57;2.00;;;;;14.70;101542.00;;;;4944108;28;20300;-61
2022/07/05 02:48:19;;;;;;;3.27;2.00;;;;;14.60;101543.00;;;;4939443;28;20382;-63
2022/07/05 02:51:06;;;;;;;2.43;1.80;;;;;14.60;101531.00;;;;4946193;28;20364;-64
2022/07/05 02:53:53;;;;;;;3.30;1.90;;;;;14.60;101544.00;;;;4946582;28;20247;-64
2022/07/05 02:56:39;;;;;;;1.93;1.73;;;;;14.50;101541.00;;;;4943278;28;20749;-64
2022/07/05 02:59:25;;;;;;;2.40;1.90;;;;;14.40;101548.00;;;;4944947;28;20360;-64
2022/07/05 03:02:12;;;;;;;2.20;2.00;;;;;14.40;101551.00;;;;4940680;28;20356;-64
2022/07/05 03:04:59;;;;;;;2.83;1.90;;;;;14.40;101551.00;;;;4942553;28;20725;-63
2022/07/05 03:07:45;;;;;;;2.50;2.10;;;;;14.40;101548.00;;;;4947484;28;20332;-62
2022/07/05 03:10:32;;;;;;;2.10;1.80;;;;;14.10;101543.00;;;;4948172;28;20299;-64
2022/07/05 03:13:18;;;;;;;2.23;2.00;;;;;14.20;101550.00;;;;4941705;28;20236;-64
2022/07/05 03:16:05;;;;;;;1.90;1.60;;;;;14.20;101545.00;;;;4945350;28;20266;-63
2022/07/05 03:18:51;;;;;;;3.43;2.13;;;;;14.20;101565.00;;;;4945396;28;20248;-64
2022/07/05 03:21:39;;;;;;;3.07;1.90;;;;;14.10;101562.00;;;;4940808;28;20476;-62
2022/07/05 03:24:25;;;;;;;2.10;1.90;;;;;14.00;101558.00;;;;4939678;28;20252;-64
2022/07/05 03:27:11;;;;;;;2.60;2.07;;;;;14.00;101560.00;;;;4935693;28;20245;-64
2022/07/05 03:30:04;;;;;;;4.83;2.50;;;;;14.00;101560.00;;;;4944561;28;20302;-64
2022/07/05 03:32:50;;;;;;;3.97;2.00;;;;;14.20;101560.00;;;;4947560;28;20315;-64
2022/07/05 03:35:37;;;;;;;2.37;2.13;;;;;14.10;101562.00;;;;4947385;28;20605;-63
2022/07/05 03:38:24;;;;;;;3.23;2.13;;;;;14.10;101567.00;;;;4942858;28;20315;-63
2022/07/05 03:41:11;;;;;;;3.33;2.10;;;;;14.10;101570.00;;;;4948726;28;20252;-63
2022/07/05 03:43:57;;;;;;;4.03;2.00;;;;;14.10;101577.00;;;;4947051;28;20378;-64
2022/07/05 03:46:43;;;;;;;2.10;1.83;;;;;14.10;101572.00;;;;4948817;28;20606;-64
2022/07/05 03:49:35;;;;;;;2.50;2.30;;;;;14.10;101571.00;;;;4942586;28;20259;-64
2022/07/05 03:52:21;;;;;;;3.07;2.47;;;;;14.10;101574.00;;;;4944520;28;20231;-64
2022/07/05 03:55:13;;;;;;;2.20;2.00;;;;;14.10;101580.00;;;;4947342;28;20263;-63
2022/07/05 03:57:59;;;;;;;3.30;2.23;;;;;14.10;101578.00;;;;4945106;28;20236;-63
2022/07/05 04:00:45;;;;;;;2.47;1.80;;;;;14.10;101577.00;;;;4946772;28;20291;-63
2022/07/05 04:03:32;;;;;;;2.20;2.00;;;;;14.10;101581.00;;;;4947527;28;20725;-64
2022/07/05 04:06:25;;;;;;;2.70;2.40;;;;;14.10;101573.00;;;;4941688;28;21095;-64
2022/07/05 04:09:12;;;;;;;2.37;2.00;;;;;14.10;101575.00;;;;4946185;28;20311;-64
2022/07/05 04:11:59;;;;;;;3.37;2.30;;;;;14.00;101577.00;;;;4945990;28;20240;-64
2022/07/05 04:14:45;;;;;;;2.80;2.07;;;;;14.00;101578.00;;;;4944497;28;20235;-64
2022/07/05 04:17:31;;;;;;;2.80;2.13;;;;;14.00;101585.00;;;;4942868;28;20239;-62
2022/07/05 04:20:18;;;;;;;2.20;2.00;;;;;14.00;101578.00;;;;4938748;28;20729;-62
2022/07/05 04:23:05;;;;;;;2.87;2.33;;;;;14.00;101581.00;;;;4940106;28;20243;-63
2022/07/05 04:25:51;;;;;;;2.73;2.30;;;;;14.10;101582.00;;;;4947285;28;20244;-63
2022/07/05 04:28:38;;;;;;;4.30;2.33;;;;;14.10;101587.00;;;;4946457;28;20292;-63
2022/07/05 04:31:25;;;;;;;3.17;2.17;;;;;14.20;101592.00;;;;4939930;28;20237;-62
2022/07/05 04:34:11;;;;;;;3.60;2.30;;;;;14.10;101590.00;;;;4946325;28;20235;-63
2022/07/05 04:36:57;;;;;;;4.03;2.40;;;;;14.20;101595.00;;;;4945568;28;20921;-64
2022/07/05 04:39:43;;;;;;;3.00;2.30;;;;;14.30;101596.00;;;;4947526;28;20291;-63
2022/07/05 04:42:30;;;;;;;2.60;2.30;;;;;14.30;101587.00;;;;4940034;28;20231;-63
2022/07/05 04:45:18;;;;;;;2.50;2.30;;;;;14.30;101587.00;;;;4946819;28;20289;-62
2022/07/05 04:48:05;;;;;;;2.67;2.13;;;;;14.30;101585.00;;;;4943434;28;20252;-63
2022/07/05 04:50:51;;;;;;;2.70;2.17;;;;;14.40;101593.00;;;;4941344;28;20244;-64
2022/07/05 04:53:37;;;;;;;3.73;2.00;;;;;14.40;101583.00;;;;4945678;28;20240;-63
2022/07/05 04:56:24;;;;;;;2.67;2.07;;;;;14.50;101590.00;;;;4941203;28;20236;-64
2022/07/05 04:59:10;;;;;;;3.00;2.10;;;;;14.70;101587.00;;;;4946260;28;20307;-63
2022/07/05 05:01:58;;;;;;;2.53;2.00;;;;;14.80;101596.00;;;;4945187;28;20231;-64
2022/07/05 05:04:45;;;;;;;5.87;2.47;;;;;15.00;101600.00;;;;4945231;28;20318;-64
2022/07/05 05:07:31;;;;;;;3.17;2.10;;;;;15.20;101593.00;;;;4945382;28;20251;-64
2022/07/05 05:10:24;;;;;;;3.93;2.20;;;;;15.40;101603.00;;;;4940925;28;20303;-63
2022/07/05 05:13:10;;;;;;;3.40;2.10;;;;;15.40;101605.00;;;;4946543;28;20236;-64
2022/07/05 05:15:56;;;;;;;2.97;2.07;;;;;15.60;101615.00;;;;4947494;28;20240;-63
2022/07/05 05:18:44;;;;;;;3.00;2.33;;;;;15.70;101606.00;;;;4950995;28;20692;-64
2022/07/05 05:21:31;;;;;;;3.57;2.17;;;;;15.80;101604.00;;;;4947219;28;20231;-64
2022/07/05 05:24:17;;;;;;;4.27;2.10;;;;;15.90;101604.00;;;;4935875;28;20229;-63
2022/07/05 05:27:04;;;;;;;3.90;2.30;;;;;16.00;101618.00;;;;4948056;28;20256;-64
2022/07/05 05:29:50;;;;;;;2.70;2.20;;;;;16.00;101613.00;;;;4935672;28;21079;-63
2022/07/05 05:32:37;;;;;;;5.60;2.40;;;;;16.20;101600.00;;;;4941537;28;20304;-64
2022/07/05 05:35:24;;;;;;;7.23;2.47;;;;;16.40;101603.00;;;;4949955;28;20236;-64
2022/07/05 05:38:10;;;;;;;4.30;2.83;;;;;16.60;101607.00;;;;4949311;28;20319;-63
2022/07/05 05:40:57;;;;;;;3.57;3.00;;;;;16.70;101618.00;;;;4947733;28;20318;-63
2022/07/05 05:43:43;;;;;;;4.17;3.10;;;;;16.90;101618.00;;;;4948906;28;20229;-63
2022/07/05 05:46:30;;;;;;;3.57;2.87;;;;;17.00;101627.00;;;;4949664;28;20238;-62
2022/07/05 05:49:16;;;;;;;7.47;3.97;;;;;17.10;101619.00;;;;4949142;28;20239;-64
2022/07/05 05:52:04;;;;;;;4.37;2.50;;;;;17.10;101633.00;;;;4949288;28;20316;-63
2022/07/05 05:54:51;;;;;;;2.87;2.30;;;;;17.20;101625.00;;;;4949930;28;20262;-64
2022/07/05 05:57:37;;;;;;;3.30;2.13;;;;;17.40;101631.00;;;;4945730;28;20233;-64
2022/07/05 06:00:25;;;;;;;3.10;2.10;;;;;17.40;101635.00;;;;4943597;28;20239;-64
2022/07/05 06:03:11;;;;;;;2.80;2.37;;;;;17.50;101634.00;;;;4949265;28;20236;-64
2022/07/05 06:05:58;;;;;;;3.33;2.30;;;;;17.60;101634.00;;;;4947979;28;20239;-64
2022/07/05 06:08:46;;;;;;;3.67;2.40;;;;;17.70;101624.00;;;;4950177;28;20228;-64
2022/07/05 06:11:32;;;;;;;3.60;2.43;;;;;17.90;101626.00;;;;4945985;28;20368;-64
2022/07/05 06:14:18;;;;;;;2.80;2.17;;;;;18.00;101628.00;;;;4945355;28;20234;-64
2022/07/05 06:17:05;;;;;;;2.93;2.30;;;;;18.00;101628.00;;;;4948395;28;20239;-63
2022/07/05 06:19:51;;;;;;;2.47;2.27;;;;;18.00;101639.00;;;;4942191;28;20236;-64
2022/07/05 06:22:37;;;;;;;2.47;2.27;;;;;18.00;101639.00;;;;4944308;28;20744;-64
2022/07/05 06:25:25;;;;;;;2.27;2.07;;;;;18.10;101640.00;;;;4948388;28;20309;-63
2022/07/05 06:28:11;;;;;;;4.10;1.67;;;;;18.20;101653.00;;;;4948650;28;20240;-64
2022/07/05 06:30:58;;;;;;;4.53;2.57;;;;;18.30;101650.00;;;;4946668;28;20235;-64
2022/07/05 06:33:44;;;;;;;3.40;2.10;;;;;18.40;101644.00;;;;4943673;28;20868;-64
2022/07/05 06:36:30;;;;;;;2.77;1.90;;;;;18.50;101651.00;;;;4937792;28;20257;-64
2022/07/05 06:39:17;;;;;;;2.00;1.30;;;;;18.60;101649.00;;;;4942214;28;20232;-64
2022/07/05 06:42:05;;;;;;;1.50;1.33;;;;;18.80;101659.00;;;;4947089;28;20239;-64
2022/07/05 06:44:51;;;;;;;2.50;1.47;;;;;18.90;101647.00;;;;4947808;28;20240;-64
2022/07/05 06:47:38;;;;;;;1.77;1.53;;;;;19.00;101652.00;;;;4948754;28;20239;-64
2022/07/05 06:50:25;;;;;;;2.53;1.43;;;;;19.00;101657.00;;;;4941513;28;20348;-64
2022/07/05 06:53:12;;;;;;;1.40;1.30;;;;;19.00;101654.00;;;;4949180;28;21056;-65
2022/07/05 06:55:58;;;;;;;2.23;1.30;;;;;19.10;101659.00;;;;4946609;28;20308;-65
2022/07/05 06:58:46;;;;;;;3.40;1.43;;;;;19.10;101649.00;;;;4943813;28;20265;-66
2022/07/05 07:01:52;;;;;;;2.90;1.40;;;;;19.30;101662.00;;;;4945724;28;20240;-65
2022/07/05 07:04:58;;;;;;;2.23;1.20;;;;;19.40;101658.00;;;;4937147;28;20241;-65
2022/07/05 07:11:06;;;;;;;1.50;1.30;;;;;19.30;101672.00;;;;4944998;28;20231;-66
2022/07/05 07:13:53;;;;;;;1.37;1.27;;;;;19.40;101671.00;;;;4947772;28;20251;-66
2022/07/05 07:16:40;;;;;;;1.37;1.27;;;;;19.40;101664.00;;;;4942522;28;20323;-66
2022/07/05 07:19:26;;;;;;;1.80;1.30;;;;;19.30;101671.00;;;;4945332;28;20356;-64
2022/07/05 07:22:12;;;;;;;2.07;1.50;;;;;19.40;101676.00;;;;4946767;28;20237;-65
2022/07/05 07:24:59;;;;;;;3.53;1.40;;;;;19.30;101674.00;;;;4941574;28;20228;-62
2022/07/05 07:27:47;;;;;;;1.70;1.50;;;;;19.20;101670.00;;;;4943081;28;20259;-64
2022/07/05 07:30:35;;;;;;;3.13;1.57;;;;;19.10;101675.00;;;;4939515;28;20224;-63
2022/07/05 07:33:21;;;;;;;2.70;1.50;;;;;19.10;101684.00;;;;4941597;28;20240;-64
2022/07/05 07:36:28;;;;;;;4.80;1.20;;;;;19.40;101680.00;;;;4937477;28;20235;-67
2022/07/05 07:39:14;;;;;;;1.67;1.30;;;;;19.40;101683.00;;;;4946244;28;20225;-66
2022/07/05 07:42:01;;;;;;;1.40;1.30;;;;;19.30;101682.00;;;;4943436;28;20303;-64
2022/07/05 07:44:47;;;;;;;1.20;1.20;;;;;19.30;101682.00;;;;4937990;28;20282;-65
2022/07/05 07:47:36;;;;;;;1.30;1.20;;;;;19.40;101681.00;;;;4940209;28;20232;-66
2022/07/05 07:50:22;;;;;;;2.17;1.40;;;;;19.40;101674.00;;;;4947643;28;20299;-65
2022/07/05 07:53:08;;;;;;;1.63;1.30;;;;;19.50;101682.00;;;;4945531;28;20713;-65
2022/07/05 07:55:55;;;;;;;2.73;1.50;;;;;19.70;101672.00;;;;4943385;28;20229;-64
2022/07/05 07:58:41;;;;;;;1.33;1.23;;;;;19.70;101683.00;;;;4942807;28;20304;-65
2022/07/05 08:01:28;;;;;;;1.53;1.30;;;;;19.70;101676.00;;;;4939283;28;20706;-65
2022/07/05 08:04:15;;;;;;;1.60;1.50;;;;;19.80;101675.00;;;;4943709;28;20583;-65
2022/07/05 08:07:03;;;;;;;2.57;1.30;;;;;19.90;101680.00;;;;4946023;28;20732;-64
2022/07/05 08:09:50;;;;;;;1.27;1.17;;;;;20.10;101678.00;;;;4948412;28;20275;-65
2022/07/05 08:12:36;;;;;;;1.73;1.17;;;;;20.20;101677.00;;;;4938417;28;20260;-66
2022/07/05 08:15:22;;;;;;;1.33;1.23;;;;;20.30;101672.00;;;;4945482;28;20850;-66
2022/07/05 08:24:17;;;;;;;3.83;1.70;;;;;20.50;101690.00;;;;4931806;28;20644;-65
2022/07/05 08:27:04;;;;;;;1.97;1.70;;;;;20.60;101682.00;;;;4933456;28;20237;-64
2022/07/05 08:29:50;;;;;;;2.77;1.63;;;;;20.50;101686.00;;;;4931358;29;20232;-65
2022/07/05 08:32:36;;;;;;;2.77;1.57;;;;;20.60;101677.00;;;;4930469;29;20229;-65
2022/07/05 08:35:23;;;;;;;2.47;1.50;;;;;20.80;101672.00;;;;4932063;28;20299;-64
2022/07/05 08:38:12;;;;;;;1.70;1.60;;;;;21.10;101688.00;;;;4930295;29;20242;-64
2022/07/05 08:40:59;;;;;;;2.70;1.70;;;;;21.20;101680.00;;;;4936475;28;20237;-64
2022/07/05 08:43:47;;;;;;;2.80;1.60;;;;;21.40;101685.00;;;;4937657;28;20609;-65
2022/07/05 08:46:37;;;;;;;1.90;1.70;;;;;21.50;101676.00;;;;4939424;28;20741;-64
2022/07/05 08:49:25;;;;;;;5.93;3.63;;;;;21.70;101682.00;;;;4940415;28;21045;-65
2022/07/05 08:52:13;;;;;;;2.60;2.07;;;;;21.70;101687.00;;;;4945359;28;20292;-65
2022/07/05 08:55:01;;;;;;;2.47;1.53;;;;;21.80;101684.00;;;;4946515;28;20230;-66
2022/07/05 08:57:47;;;;;;;3.13;1.60;;;;;22.00;101683.00;;;;4941449;28;20370;-65
2022/07/05 09:00:35;;;;;;;3.50;1.90;;;;;22.20;101678.00;;;;4944628;28;20279;-63
2022/07/05 09:03:28;;;;;;;1.90;1.70;;;;;21.90;101679.00;;;;4938078;28;20242;-66
2022/07/05 09:06:18;;;;;;;1.70;1.60;;;;;21.80;101682.00;;;;4944667;28;20229;-63
2022/07/05 09:09:04;;;;;;;1.60;1.50;;;;;21.80;101683.00;;;;4929189;29;20236;-65
2022/07/05 09:11:52;;;;;;;4.10;1.50;;;;;21.90;101682.00;;;;4942038;28;20243;-66
2022/07/05 09:14:59;;;;;;;2.90;1.70;;;;;21.90;101679.00;;;;4941739;28;20243;-66
2022/07/05 09:17:46;;;;;;;3.10;1.50;;;;;21.60;101684.00;;;;4944814;28;20239;-66
2022/07/05 09:20:32;;;;;;;2.60;1.60;;;;;21.50;101691.00;;;;4940443;28;20927;-65
2022/07/05 09:23:21;;;;;;;2.17;1.50;;;;;21.60;101691.00;;;;4943236;28;20256;-63
2022/07/05 09:26:13;;;;;;;2.00;1.80;;;;;21.60;101678.00;;;;4941644;28;20240;-65
2022/07/05 09:29:01;;;;;;;2.47;1.90;;;;;21.70;101684.00;;;;4942871;28;20235;-66
2022/07/05 09:32:07;;;;;;;34.00;6.60;;;;;21.70;101688.00;;;;4945576;28;20238;-64
2022/07/05 09:34:54;;;;;;;9.23;2.40;;;;;21.70;101684.00;;;;4945910;28;20242;-66
2022/07/05 09:37:44;;;;;;;3.00;1.93;;;;;21.50;101685.00;;;;4946599;28;20231;-66
2022/07/05 09:40:31;;;;;;;1.50;1.40;;;;;21.50;101689.00;;;;4945671;28;20643;-66
2022/07/05 09:43:19;;;;;;;3.87;1.53;;;;;22.00;101684.00;;;;4942628;28;20449;-66
2022/07/05 09:46:07;;;;;;;1.40;1.23;;;;;22.70;101678.00;;;;4942312;28;20853;-65
2022/07/05 09:48:53;;;;;;;2.17;1.40;;;;;22.90;101675.00;;;;4942324;28;20772;-65
2022/07/05 09:51:49;;;;;;;2.97;1.53;;;;;22.70;101687.00;;;;4939803;28;20222;-65
2022/07/05 09:54:40;;;;;;;2.13;1.40;;;;;22.30;101685.00;;;;4938469;28;20235;-64
2022/07/05 09:57:26;;;;;;;1.60;1.50;;;;;22.00;101684.00;;;;4944279;28;20242;-64
2022/07/05 10:00:15;;;;;;;1.83;1.60;;;;;22.50;101683.00;;;;4937241;28;20904;-63
2022/07/05 10:03:03;;;;;;;1.53;1.40;;;;;22.90;101680.00;;;;4943422;28;20613;-65
2022/07/05 10:05:49;;;;;;;2.30;1.20;;;;;23.30;101687.00;;;;4941987;28;20302;-65
2022/07/05 10:08:43;;;;;;;1.60;1.23;;;;;23.20;101682.00;;;;4942993;28;20314;-66
2022/07/05 10:11:29;;;;;;;2.03;1.83;;;;;23.00;101694.00;;;;4947379;28;20307;-63
2022/07/05 10:14:17;;;;;;;2.63;1.50;;;;;22.70;101688.00;;;;4941295;28;20475;-65
2022/07/05 10:17:05;;;;;;;3.03;1.20;;;;;22.40;101692.00;;;;4942961;28;20797;-64
2022/07/05 10:19:55;;;;;;;2.47;1.33;;;;;22.30;101693.00;;;;4947384;28;20234;-64
2022/07/05 10:22:41;;;;;;;1.77;1.50;;;;;22.00;101691.00;;;;4942978;28;20236;-64
2022/07/05 10:25:29;;;;;;;3.10;1.70;;;;;22.00;101690.00;;;;4948414;28;20307;-63
2022/07/05 10:28:16;;;;;;;1.77;1.67;;;;;22.00;101697.00;;;;4947906;28;20307;-65
2022/07/05 10:31:03;;;;;;;2.20;1.70;;;;;21.90;101692.00;;;;4949440;28;20448;-63
2022/07/05 10:33:51;;;;;;;1.90;1.50;;;;;21.90;101686.00;;;;4943904;28;20242;-63
2022/07/05 10:36:40;;;;;;;2.90;1.50;;;;;21.90;101699.00;;;;4943650;28;20238;-65
2022/07/05 10:39:27;;;;;;;2.50;1.37;;;;;21.90;101690.00;;;;4943076;28;20316;-64
2022/07/05 10:42:15;;;;;;;1.90;1.40;;;;;22.10;101688.00;;;;4945540;28;20240;-63
2022/07/05 10:45:02;;;;;;;3.93;1.40;;;;;22.80;101690.00;;;;4944378;28;20240;-64
2022/07/05 10:48:27;;;;;;;1.30;1.20;;;;;23.30;101686.00;;;;4943696;28;20255;-63
2022/07/05 10:51:16;;;;;;;2.70;1.63;;;;;23.80;101683.00;;;;4937275;28;20251;-63
2022/07/05 10:54:04;;;;;;;1.60;1.50;;;;;24.20;101681.00;;;;4942493;28;20238;-65
2022/07/05 10:57:21;;;;;;;2.73;1.23;;;;;24.50;101673.00;;;;4936115;28;20244;-65
2022/07/05 11:00:09;;;;;;;1.60;1.30;;;;;24.40;101680.00;;;;4944609;28;20235;-65
2022/07/05 11:03:07;;;;;;;1.47;1.37;;;;;24.40;101686.00;;;;4942686;28;20313;-65
2022/07/05 11:05:55;;;;;;;1.40;1.30;;;;;24.60;101686.00;;;;4939335;28;20241;-65
2022/07/05 11:09:16;;;;;;;1.57;1.30;;;;;24.60;101682.00;;;;4943432;28;20900;-64
2022/07/05 11:12:07;;;;;;;3.73;1.50;;;;;24.20;101688.00;;;;4944626;28;20239;-64
2022/07/05 11:15:14;;;;;;;1.40;1.30;;;;;24.10;101685.00;;;;4945807;28;20236;-63
2022/07/05 11:18:15;;;;;;;4.27;1.80;;;;;23.90;101679.00;;;;4944366;28;20236;-63
2022/07/05 11:21:17;;;;;;;2.77;1.30;;;;;23.60;101682.00;;;;4938633;28;20239;-64
2022/07/05 11:24:20;;;;;;;1.67;1.47;;;;;23.60;101683.00;;;;4945945;28;20239;-64
2022/07/05 11:27:11;;;;;;;1.50;1.40;;;;;23.90;101683.00;;;;4938104;28;20240;-64
2022/07/05 11:29:58;;;;;;;1.70;1.60;;;;;24.10;101685.00;;;;4942559;28;20232;-64
2022/07/05 11:32:44;;;;;;;1.50;1.30;;;;;23.70;101688.00;;;;4932101;28;20240;-65
2022/07/05 11:35:33;;;;;;;1.90;1.60;;;;;23.40;101678.00;;;;4939356;28;20236;-64
2022/07/05 11:38:19;;;;;;;1.83;1.63;;;;;23.30;101683.00;;;;4945922;28;20244;-64
2022/07/05 11:41:15;;;;;;;2.80;1.40;;;;;23.20;101678.00;;;;4930002;29;20853;-64
2022/07/05 11:44:02;;;;;;;2.07;1.50;;;;;23.20;101673.00;;;;4937072;28;20235;-62
2022/07/05 11:46:50;;;;;;;1.90;1.73;;;;;23.40;101670.00;;;;4935520;28;20235;-63
2022/07/05 11:49:36;;;;;;;2.60;1.20;;;;;23.60;101665.00;;;;4938042;28;20235;-61
2022/07/05 11:52:26;;;;;;;1.67;1.33;;;;;24.40;101665.00;;;;4935175;28;20228;-65
2022/07/05 11:55:12;;;;;;;5.17;1.73;;;;;24.90;101660.00;;;;4935888;28;20300;-64
2022/07/05 11:58:00;;;;;;;1.60;1.50;;;;;25.20;101656.00;;;;4934627;28;20237;-64
2022/07/05 12:00:55;;;;;;;2.80;1.50;;;;;24.80;101660.00;;;;4934571;28;20303;-65
2022/07/05 12:03:42;;;;;;;1.47;1.37;;;;;24.40;101649.00;;;;4934461;28;20362;-66
2022/07/05 12:06:28;;;;;;;1.60;1.50;;;;;24.00;101659.00;;;;4937565;28;20301;-65
2022/07/05 12:09:14;;;;;;;3.07;1.80;;;;;23.90;101662.00;;;;4936594;28;20327;-62
2022/07/05 12:15:21;;;;;;;1.60;1.50;;;;;25.20;101645.00;;;;4884672;29;20238;-65
2022/07/05 12:18:11;;;;;;;2.73;1.97;;;;;25.30;101640.00;;;;4883405;29;20241;-64
2022/07/05 12:20:58;;;;;;;2.60;1.90;;;;;24.90;101644.00;;;;4926876;28;20224;-63
2022/07/05 12:23:45;;;;;;;1.93;1.77;;;;;24.70;101649.00;;;;4932430;28;20288;-64
2022/07/05 12:26:31;;;;;;;2.27;1.40;;;;;25.00;101645.00;;;;4932026;28;21114;-63
2022/07/05 12:29:18;;;;;;;2.57;1.50;;;;;25.20;101634.00;;;;4933326;28;20365;-63
2022/07/05 12:32:11;;;;;;;1.60;1.50;;;;;25.60;101646.00;;;;4937049;28;20232;-65
2022/07/05 12:34:58;;;;;;;2.03;1.57;;;;;26.10;101638.00;;;;4933942;28;20225;-65
2022/07/05 12:37:51;;;;;;;1.60;1.50;;;;;25.40;101644.00;;;;4934101;28;20377;-64
2022/07/05 12:40:39;;;;;;;2.47;1.60;;;;;25.00;101649.00;;;;4939389;28;20235;-62
2022/07/05 12:43:25;;;;;;;2.03;1.60;;;;;24.80;101649.00;;;;4946664;28;20720;-63
2022/07/05 12:46:12;;;;;;;2.13;1.70;;;;;24.70;101647.00;;;;4942072;28;20241;-62
2022/07/05 12:49:01;;;;;;;3.30;2.03;;;;;24.80;101651.00;;;;4938398;28;20299;-63
2022/07/05 12:51:47;;;;;;;1.60;1.50;;;;;24.80;101648.00;;;;4943212;28;20231;-62
2022/07/05 13:00:42;;;;;;;3.23;1.70;;;;;25.70;101648.00;;;;4945566;28;20235;-66
2022/07/05 13:03:28;;;;;;;1.60;1.50;;;;;25.90;101641.00;;;;4939568;28;20224;-63
2022/07/05 13:06:17;;;;;;;2.43;1.33;;;;;26.30;101646.00;;;;4941258;28;20228;-63
2022/07/05 13:09:03;;;;;;;2.43;1.80;;;;;26.90;101643.00;;;;4944259;28;20231;-63
2022/07/05 13:11:49;;;;;;;3.47;1.53;;;;;26.50;101632.00;;;;4947511;28;20729;-63
2022/07/05 13:14:36;;;;;;;1.60;1.50;;;;;26.70;101640.00;;;;4944237;28;20292;-63
2022/07/05 13:17:24;;;;;;;2.28;1.40;;;;;26.60;101641.00;;;;4945436;28;20236;-62
2022/07/05 13:20:11;;;;;;;3.92;1.70;;;;;26.70;101637.00;;;;4945367;28;20228;-64
2022/07/05 13:22:59;;;;;;;2.70;1.70;;;;;26.20;101652.00;;;;4939555;28;20794;-64
2022/07/05 13:25:45;;;;;;;1.77;1.60;;;;;25.80;101654.00;;;;4940755;28;20295;-64
2022/07/05 13:28:32;;;;;;;2.03;1.52;;;;;25.60;101657.00;;;;4942803;28;20237;-64
2022/07/05 13:31:18;;;;;;;2.15;1.88;;;;;25.00;101649.00;;;;4945852;28;20228;-64
2022/07/05 13:34:05;;;;;;;2.25;1.92;;;;;25.80;101650.00;;;;4940010;28;20299;-64
2022/07/05 13:36:51;;;;;;;2.70;1.50;;;;;26.00;101640.00;;;;4943847;28;20239;-64
2022/07/05 13:39:40;;;;;;;2.40;1.60;;;;;25.70;101653.00;;;;4950577;28;20227;-65
2022/07/05 13:42:26;;;;;;;2.22;1.80;;;;;25.50;101651.00;;;;4947896;28;20695;-64
2022/07/05 13:45:13;;;;;;;2.13;1.77;;;;;25.90;101649.00;;;;4947683;28;20239;-65
2022/07/05 13:47:59;;;;;;;1.70;1.60;;;;;26.60;101637.00;;;;4942771;28;20231;-61
2022/07/05 13:50:45;;;;;;;2.92;2.10;;;;;26.80;101645.00;;;;4945906;28;20287;-65
2022/07/05 13:53:32;;;;;;;2.28;1.70;;;;;26.40;101653.00;;;;4948400;28;20280;-64
2022/07/05 13:56:19;;;;;;;2.10;1.60;;;;;26.10;101647.00;;;;4945778;28;20259;-64
2022/07/05 13:59:06;;;;;;;2.47;1.92;;;;;25.80;101653.00;;;;4945947;28;20240;-64
2022/07/05 14:01:52;;;;;;;1.80;1.70;;;;;25.90;101654.00;;;;4949459;28;20239;-63
2022/07/05 14:04:38;;;;;;;2.10;1.90;;;;;26.20;101653.00;;;;4934974;28;20717;-64
2022/07/05 14:07:25;;;;;;;1.73;1.63;;;;;26.10;101639.00;;;;4944989;28;20232;-64